EGEOEGPF

Guest
Details From EGEO - Oban
To EGPF - Glasgow
Flight Number -
Tags Generated
Created
Modified
Stats Distance 48 nm / 88 km
Max Altitude 0 ft / 0 m
Waypoints 2
Social Downloads 3
Likes 0
Share VATSIM

Download

Looking for another format? Having issues loading an existing format? Contact us
Advertisement - Login to hide

Notes

Generated

Route

EGEO EGPF

ID Type Via Altitude Latitude Longitude Leg Dist Tot Dist Heading (true) Name
O EGEO APT - 0 ft / 0 m 56.46016˚ -5.40382˚ - 0 nm - Oban
O EGPF APT - 0 ft / 0 m 55.87222˚ -4.44472˚ 47 nm 47 nm 137° / 138° -

Altitude Profile

Advertisement - Login to hide

EGEO

Details ICAO EGEO (OBN)
Name Oban
Region United Kingdom
Timezone Europe/London (UTC+1.0)
Stats Elevation 20 ft / 6 m (AMSL)
Location 56.463716° -5.399864°
Runways 1
Magnetic Variation 3.175° W

METAR

EGEO 261420Z 10011KT CAVOK 24/08 Q1027

Decode

TAF

Not found

Departure Runways

ID Width Length Bearing (true) Bearing (mag) Surface Threshold Offset Overrun Length
01 98 ft / 30 m 4,165 ft / 1,270 m 5.58° 8.76° Asphalt 413 ft / 126 m 0 ft / 0 m
19 98 ft / 30 m 4,165 ft / 1,270 m 185.58° 188.76° Asphalt 0 ft / 0 m 0 ft / 0 m

EGPF

Details ICAO EGPF (GLA)
Name Glasgow
Region United Kingdom
Timezone Europe/London (UTC+1.0)
Stats Elevation 26 ft / 8 m (AMSL)
Location 55.871728° -4.433648°
Runways 1
Magnetic Variation 2.655° W

METAR

EGPF 261420Z AUTO 07014KT 9999 NCD 20/09 Q1028

Decode

TAF

TAF TAF EGPF 261100Z 2612/2712 07012KT 9999 FEW020 TEMPO 2612/2618 08016G26KT PROB40 2623/2709 3000 BR BKN005

Decode

Destination Runways

ID Width Length Bearing (true) Bearing (mag) Surface Threshold Offset Overrun Length
05 151 ft / 46 m 8,721 ft / 2,658 m 46.34° 48.99° Asphalt 0 ft / 0 m 499 ft / 152 m
23 151 ft / 46 m 8,721 ft / 2,658 m 226.37° 229.02° Asphalt 1,004 ft / 306 m 0 ft / 0 m

Approach Navaids

Runway Type Ident Frequency Range Bearing (true) Bearing (mag) Slope Elevation
05 Localiser IUU 110.10 MHz 18 nm / 33 km 46.37° 49.02° - 26 ft / 8 m (AMSL)
05 Glidescope IUU 110.10 MHz 10 nm / 19 km 46.36° 49.01° 3.00° 52 ft / 16 m (AMSL)
05 DME IUU 110.10 MHz 18 nm / 33 km - - - 25 ft / 8 m (AMSL)
23 Localiser IOO 110.10 MHz 18 nm / 33 km 226.33° 228.99° - 26 ft / 8 m (AMSL)
23 Glidescope IOO 110.10 MHz 10 nm / 19 km 226.36° 229.01° 3.00° 50 ft / 15 m (AMSL)
23 DME IOO 110.10 MHz 18 nm / 33 km - - - 25 ft / 8 m (AMSL)

Popular Alternatives